Time;durP1;ratioP1;P1;durP2;ratioP2;P2;SDS_P1;SDS_P2;PMS_P1;PMS_P2;Temp;Humidity;BMP_temperature;BMP_pressure;BME280_temperature;BME280_humidity;BME280_pressure;Samples;Min_cycle;Max_cycle;Signal;HPM_P1;HPM_P2
2023/03/06 00:01:24;;;;;;;7.95;6.85;;;;;;;10.20;80.82;100090.34;10298762;28;96928;-75
2023/03/06 00:06:28;;;;;;;9.73;7.28;;;;;;;10.24;80.23;100081.44;10305769;28;96584;-75
2023/03/06 00:11:31;;;;;;;10.00;7.70;;;;;;;10.18;80.25;100073.78;10343671;28;96697;-75
2023/03/06 00:16:35;;;;;;;8.38;7.30;;;;;;;10.21;80.70;100079.78;10345223;28;96633;-75
2023/03/06 00:21:41;;;;;;;8.82;7.43;;;;;;;10.11;80.17;100074.94;10344271;28;96798;-75
2023/03/06 00:26:44;;;;;;;9.25;7.43;;;;;;;10.04;80.89;100081.38;10334443;28;96707;-75
2023/03/06 00:31:47;;;;;;;8.38;7.45;;;;;;;10.03;80.29;100077.03;10301947;28;96686;-75
2023/03/06 00:36:52;;;;;;;9.40;7.25;;;;;;;10.04;80.47;100076.09;10302480;28;96758;-75
2023/03/06 00:41:56;;;;;;;9.05;7.38;;;;;;;9.98;80.69;100069.34;10312616;28;97280;-75
2023/03/06 00:46:59;;;;;;;8.55;7.32;;;;;;;10.04;80.91;100071.72;10343449;28;96730;-75
2023/03/06 00:52:04;;;;;;;9.98;7.63;;;;;;;10.00;80.30;100071.91;10343326;28;97694;-75
2023/03/06 00:57:08;;;;;;;9.60;7.75;;;;;;;9.94;80.79;100064.25;10342877;28;96660;-75
2023/03/06 01:02:11;;;;;;;9.60;8.55;;;;;;;9.96;80.79;100078.19;10342232;28;96744;-75
2023/03/06 01:07:15;;;;;;;9.48;8.30;;;;;;;9.97;80.83;100077.28;10344490;28;97028;-75
2023/03/06 01:12:19;;;;;;;9.73;8.10;;;;;;;9.98;81.15;100076.38;10342164;28;96924;-75
2023/03/06 01:17:25;;;;;;;9.88;8.38;;;;;;;10.04;81.00;100082.22;10341719;28;96716;-75
2023/03/06 01:22:29;;;;;;;9.57;8.27;;;;;;;10.02;80.76;100072.72;10341905;28;96755;-75
2023/03/06 01:27:33;;;;;;;10.27;8.27;;;;;;;9.98;81.16;100071.97;10342263;28;97093;-75
2023/03/06 01:32:36;;;;;;;9.82;8.07;;;;;;;10.01;80.70;100068.34;10334245;28;96825;-75
2023/03/06 01:37:40;;;;;;;9.32;8.25;;;;;;;10.02;80.80;100067.47;10300550;28;97078;-75
2023/03/06 01:42:44;;;;;;;9.98;8.63;;;;;;;9.92;81.01;100066.09;10299884;28;96885;-75
2023/03/06 01:47:48;;;;;;;10.77;8.98;;;;;;;9.92;81.28;100060.84;10300628;28;96837;-75
2023/03/06 01:52:55;;;;;;;11.35;9.13;;;;;;;9.88;81.44;100056.63;10300685;28;96731;-75
2023/03/06 01:58:03;;;;;;;11.48;9.38;;;;;;;9.89;81.58;100056.56;10308349;28;96608;-75
2023/03/06 02:03:10;;;;;;;12.90;8.82;;;;;;;9.93;81.57;100052.91;10341083;28;96833;-75
2023/03/06 02:08:17;;;;;;;10.68;9.20;;;;;;;10.02;80.95;100054.31;10319445;28;96792;-75
2023/03/06 02:13:20;;;;;;;11.57;9.63;;;;;;;10.08;81.31;100052.28;10298406;28;96850;-75
2023/03/06 02:18:24;;;;;;;10.98;8.57;;;;;;;9.95;81.23;100043.16;10299509;28;96913;-75
2023/03/06 02:23:33;;;;;;;11.88;9.52;;;;;;;9.94;81.61;100044.09;10299857;28;97010;-75
2023/03/06 02:28:38;;;;;;;10.50;9.40;;;;;;;9.85;81.58;100036.56;10298149;28;96583;-75
2023/03/06 02:33:41;;;;;;;;;;;;;;;9.75;82.18;100037.88;10299418;28;97062;-75
2023/03/06 02:38:49;;;;;;;10.52;9.07;;;;;;;9.73;81.19;100034.44;10299158;28;96627;-75
2023/03/06 02:43:53;;;;;;;11.60;9.40;;;;;;;9.69;81.30;100034.63;10332857;28;96846;-75
2023/03/06 02:48:56;;;;;;;12.07;10.20;;;;;;;9.69;81.57;100030.22;10340444;28;96736;-75
2023/03/06 02:54:00;;;;;;;11.38;10.10;;;;;;;9.71;81.55;100025.75;10339141;28;96791;-75
2023/03/06 02:59:04;;;;;;;11.40;10.18;;;;;;;9.77;81.42;100025.53;10335105;28;96678;-75
2023/03/06 03:04:08;;;;;;;13.73;10.95;;;;;;;9.76;82.11;100021.16;10338185;28;97077;-75
2023/03/06 03:09:11;;;;;;;15.18;10.90;;;;;;;9.80;82.02;100003.50;10338304;28;96932;-76
2023/03/06 03:14:16;;;;;;;13.35;11.10;;;;;;;9.75;81.65;100011.59;10333101;28;96973;-75
2023/03/06 03:19:19;;;;;;;12.70;10.98;;;;;;;9.71;81.89;100007.38;10296784;28;96785;-75
2023/03/06 03:24:23;;;;;;;14.02;10.80;;;;;;;9.65;82.00;99999.75;10297164;28;96587;-76
2023/03/06 03:29:27;;;;;;;14.02;11.38;;;;;;;9.68;81.57;99994.34;10296688;28;96762;-75
2023/03/06 03:34:30;;;;;;;12.60;11.17;;;;;;;9.58;81.94;99995.66;10328419;28;96720;-75
2023/03/06 03:39:34;;;;;;;12.82;10.70;;;;;;;9.59;81.87;99988.63;10337305;28;96746;-75
2023/03/06 03:44:38;;;;;;;13.48;11.93;;;;;;;9.59;82.11;99991.25;10336962;28;96750;-75
2023/03/06 03:49:41;;;;;;;15.53;12.10;;;;;;;9.53;82.14;99996.75;10319926;28;96862;-75
2023/03/06 03:54:45;;;;;;;13.70;12.15;;;;;;;9.52;82.26;100005.56;10295416;28;96737;-75
2023/03/06 03:59:49;;;;;;;15.82;12.38;;;;;;;9.60;82.10;100003.47;10309211;28;96466;-75
2023/03/06 04:04:52;;;;;;;13.87;11.27;;;;;;;9.51;82.90;99996.81;10335884;28;96703;-75
2023/03/06 04:09:55;;;;;;;14.05;12.45;;;;;;;9.48;82.91;100007.44;10336730;28;96670;-75
2023/03/06 04:15:00;;;;;;;13.45;11.70;;;;;;;9.45;83.27;100004.06;10336811;28;96972;-75
2023/03/06 04:20:04;;;;;;;15.23;12.80;;;;;;;9.47;83.19;100007.47;10336422;28;98836;-75
2023/03/06 04:25:08;;;;;;;15.63;12.50;;;;;;;9.52;83.29;100008.19;10335624;28;97257;-75
2023/03/06 04:30:13;;;;;;;14.85;11.90;;;;;;;9.46;83.27;99992.63;10316830;28;96738;-75
2023/03/06 04:35:16;;;;;;;;;;;;;;;9.39;84.47;99999.03;10295638;28;96639;-75
2023/03/06 04:40:22;;;;;;;14.40;12.20;;;;;;;9.45;83.18;99991.78;10295939;28;96588;-75
2023/03/06 04:45:28;;;;;;;15.35;12.55;;;;;;;9.48;83.22;99982.94;10294875;28;96662;-75
2023/03/06 04:50:31;;;;;;;16.90;13.73;;;;;;;9.47;83.11;99976.81;10299584;28;96574;-75
2023/03/06 04:55:35;;;;;;;17.58;14.77;;;;;;;9.46;83.26;99985.63;10301861;28;97012;-75
2023/03/06 05:00:39;;;;;;;17.65;14.35;;;;;;;9.43;83.70;99972.63;10301478;28;96636;-75
2023/03/06 05:05:43;;;;;;;18.65;15.43;;;;;;;9.41;83.49;99970.97;10300927;28;97271;-75
2023/03/06 05:10:46;;;;;;;18.13;15.25;;;;;;;9.39;83.70;99967.53;10301119;28;96638;-75
2023/03/06 05:15:51;;;;;;;21.10;16.05;;;;;;;9.43;83.24;99962.13;10300894;28;96675;-75
2023/03/06 05:20:58;;;;;;;20.42;15.90;;;;;;;9.41;83.44;99956.06;10301096;28;96677;-75
2023/03/06 05:26:01;;;;;;;20.85;15.80;;;;;;;9.37;83.35;99953.59;10300701;28;96739;-75
2023/03/06 05:31:07;;;;;;;20.58;16.27;;;;;;;9.35;83.51;99960.69;10300321;28;96909;-75
2023/03/06 05:36:10;;;;;;;23.23;17.48;;;;;;;9.38;83.45;99964.03;10299948;28;96529;-75
2023/03/06 05:41:14;;;;;;;21.83;17.85;;;;;;;9.32;83.82;99959.06;10299326;28;96794;-75
2023/03/06 05:46:18;;;;;;;20.25;16.98;;;;;;;9.33;83.50;99973.88;10300088;28;96561;-75
2023/03/06 05:51:22;;;;;;;22.13;17.90;;;;;;;9.26;84.12;99969.78;10299927;28;96718;-75
2023/03/06 05:56:25;;;;;;;20.25;16.60;;;;;;;9.25;84.01;99961.97;10299582;28;96661;-75
2023/03/06 06:01:29;;;;;;;19.85;16.63;;;;;;;9.26;84.03;99967.16;10299303;28;96667;-75
2023/03/06 06:06:32;;;;;;;22.60;17.47;;;;;;;9.25;84.25;99975.97;10298995;28;97062;-75
2023/03/06 06:11:36;;;;;;;20.52;17.30;;;;;;;9.25;83.91;99989.09;10299285;28;96775;-75
2023/03/06 06:16:40;;;;;;;20.92;16.65;;;;;;;9.26;84.21;99985.53;10298535;28;97128;-75
2023/03/06 06:21:44;;;;;;;20.77;16.05;;;;;;;9.26;84.31;99976.81;10298554;28;96625;-75
2023/03/06 06:26:50;;;;;;;20.45;16.60;;;;;;;9.26;84.63;99977.66;10298077;28;96607;-75
2023/03/06 06:31:54;;;;;;;18.55;15.50;;;;;;;9.31;84.07;99980.13;10298310;28;96742;-75
2023/03/06 06:36:58;;;;;;;20.00;15.82;;;;;;;9.33;84.33;99989.63;10298063;28;96680;-76
2023/03/06 06:42:01;;;;;;;18.67;15.52;;;;;;;9.37;84.47;99985.97;10297670;28;96778;-76
2023/03/06 06:47:25;;;;;;;18.98;15.77;;;;;;;9.35;84.11;99993.06;10333422;28;97043;-76
2023/03/06 06:52:29;;;;;;;17.48;15.60;;;;;;;9.37;84.04;99987.75;10339333;28;96673;-75
2023/03/06 06:57:32;;;;;;;20.77;16.92;;;;;;;9.33;84.19;99986.19;10338492;28;97425;-75
2023/03/06 07:02:36;;;;;;;20.70;16.98;;;;;;;9.30;84.67;99981.00;10339169;28;96778;-75
2023/03/06 07:07:40;;;;;;;22.33;17.10;;;;;;;9.27;84.46;99992.50;10338990;28;97270;-75
2023/03/06 07:12:43;;;;;;;20.33;17.35;;;;;;;9.28;84.51;99991.59;10337049;28;96835;-75
2023/03/06 07:17:48;;;;;;;19.75;17.58;;;;;;;9.26;84.65;99992.56;10337673;28;96711;-75
2023/03/06 07:22:52;;;;;;;20.13;17.75;;;;;;;9.36;84.51;99996.53;10338561;28;96593;-75
2023/03/06 07:27:55;;;;;;;20.23;16.80;;;;;;;9.36;84.85;100010.53;10338102;28;96683;-75
2023/03/06 07:33:00;;;;;;;21.13;17.38;;;;;;;9.44;84.56;100012.84;10309323;28;97189;-75
2023/03/06 07:38:03;;;;;;;20.83;17.10;;;;;;;9.47;84.12;100010.09;10296766;28;96700;-75
2023/03/06 07:43:07;;;;;;;19.88;16.48;;;;;;;9.55;84.16;100018.56;10296118;28;97562;-75
2023/03/06 07:48:22;;;;;;;20.23;16.65;;;;;;;9.54;83.95;100015.06;10296976;28;96631;-75
2023/03/06 07:53:26;;;;;;;19.53;16.87;;;;;;;9.62;84.34;100014.78;10296915;28;97148;-75
2023/03/06 07:58:29;;;;;;;18.85;16.70;;;;;;;9.58;84.27;100021.06;10296068;28;96608;-75
2023/03/06 08:03:34;;;;;;;18.45;16.40;;;;;;;9.60;84.39;100032.34;10319205;28;96759;-75
2023/03/06 08:08:39;;;;;;;18.75;15.70;;;;;;;9.63;84.62;100032.22;10295654;28;96636;-75
2023/03/06 08:13:43;;;;;;;18.38;16.15;;;;;;;9.72;84.08;100035.38;10295581;28;96803;-75
2023/03/06 08:18:47;;;;;;;18.50;15.45;;;;;;;9.72;83.41;100029.25;10295620;28;96651;-75
2023/03/06 08:23:51;;;;;;;16.37;14.67;;;;;;;9.69;83.76;100011.00;10298810;28;96790;-75
2023/03/06 08:28:55;;;;;;;16.08;14.10;;;;;;;9.75;83.84;100019.47;10302798;28;96623;-75
2023/03/06 08:34:02;;;;;;;14.23;12.70;;;;;;;9.97;83.68;100036.09;10326123;28;96932;-75
2023/03/06 08:39:06;;;;;;;15.68;12.10;;;;;;;10.20;83.13;100029.88;10322663;28;97332;-75
2023/03/06 08:44:10;;;;;;;14.73;12.00;;;;;;;10.33;82.99;100028.47;10302265;28;97367;-75
2023/03/06 08:49:14;;;;;;;15.98;13.05;;;;;;;10.40;82.62;100024.66;10301932;28;96641;-75
2023/03/06 08:54:18;;;;;;;12.43;11.07;;;;;;;10.72;82.20;100025.88;10301912;28;96731;-75
2023/03/06 08:59:21;;;;;;;12.38;11.07;;;;;;;11.00;81.12;100026.38;10301026;28;96990;-75
2023/03/06 09:04:25;;;;;;;10.90;9.80;;;;;;;11.87;80.19;100031.94;10301603;28;96672;-75
2023/03/06 09:09:29;;;;;;;11.07;9.98;;;;;;;12.09;79.15;100022.06;10301391;28;97302;-75
2023/03/06 09:14:32;;;;;;;17.13;13.23;;;;;;;12.55;77.34;100021.44;10333343;28;96707;-75
2023/03/06 09:19:37;;;;;;;26.48;18.27;;;;;;;12.83;76.36;100027.03;10342060;28;96789;-75
2023/03/06 09:24:40;;;;;;;29.38;19.77;;;;;;;12.32;77.32;100022.59;10342160;28;96560;-75
2023/03/06 09:29:44;;;;;;;34.15;24.85;;;;;;;12.45;77.70;100028.13;10340772;28;96628;-75
2023/03/06 09:34:48;;;;;;;23.33;17.70;;;;;;;13.80;75.09;100027.84;10311142;28;97050;-75
2023/03/06 09:39:52;;;;;;;22.92;17.05;;;;;;;15.08;70.59;100032.63;10299265;28;96790;-76
2023/03/06 09:44:58;;;;;;;16.92;15.10;;;;;;;15.18;69.98;100034.59;10307797;28;96795;-75
2023/03/06 09:50:22;;;;;;;18.92;16.10;;;;;;;14.45;70.13;100034.69;10299080;28;96794;-75
2023/03/06 09:55:27;;;;;;;23.38;19.67;;;;;;;14.18;71.65;100028.34;10299627;28;96688;-75
2023/03/06 10:00:35;;;;;;;19.05;16.67;;;;;;;13.29;72.76;100036.88;10299425;28;97391;-75
2023/03/06 10:05:44;;;;;;;22.38;16.25;;;;;;;14.11;71.50;100033.16;10299981;28;97165;-75
2023/03/06 10:10:54;;;;;;;15.95;12.32;;;;;;;15.76;67.17;100026.53;10299024;28;97103;-75
2023/03/06 10:16:06;;;;;;;15.80;11.75;;;;;;;17.48;62.91;100014.72;10299073;28;96819;-76
2023/03/06 10:21:25;;;;;;;11.75;9.52;;;;;;;18.05;59.71;100006.03;10299335;28;96722;-76
2023/03/06 10:26:35;;;;;;;9.30;8.38;;;;;;;18.35;58.82;100002.03;10300115;28;96738;-76
2023/03/06 10:31:43;;;;;;;11.10;9.88;;;;;;;19.27;57.67;100001.00;10303193;28;99016;-76
2023/03/06 10:36:48;;;;;;;13.52;10.93;;;;;;;17.78;58.99;99999.19;10330269;28;96865;-76
2023/03/06 10:41:51;;;;;;;10.80;9.70;;;;;;;16.77;61.69;99999.31;10297146;28;96891;-76
2023/03/06 10:46:55;;;;;;;12.95;11.45;;;;;;;16.23;63.93;99996.88;10297993;28;97224;-75
2023/03/06 10:52:04;;;;;;;25.60;21.43;;;;;;;16.07;64.07;100005.00;10297565;28;96856;-76
2023/03/06 10:57:25;;;;;;;23.25;19.30;;;;;;;15.23;66.35;100000.72;10298222;28;97501;-75
2023/03/06 11:02:31;;;;;;;17.38;14.60;;;;;;;14.94;67.04;100003.47;10297370;28;96743;-75
2023/03/06 11:07:36;;;;;;;19.67;17.60;;;;;;;14.58;68.33;100001.25;10297681;28;97342;-76
2023/03/06 11:12:41;;;;;;;20.92;15.35;;;;;;;14.59;68.50;99993.19;10298424;28;96868;-75
2023/03/06 11:17:53;;;;;;;29.65;21.77;;;;;;;14.29;69.16;99994.19;10297541;28;96513;-75
2023/03/06 11:23:03;;;;;;;41.80;31.02;;;;;;;14.03;70.97;99997.50;10297110;28;96757;-76
2023/03/06 11:28:13;;;;;;;93.93;54.70;;;;;;;13.92;71.83;99997.25;10298053;28;96733;-76
2023/03/06 11:33:25;;;;;;;47.60;31.13;;;;;;;13.97;72.81;99990.72;10296418;28;97201;-76
2023/03/06 11:38:40;;;;;;;46.97;30.85;;;;;;;13.93;74.30;99988.34;10296391;28;96742;-76
2023/03/06 11:43:52;;;;;;;20.45;15.13;;;;;;;13.83;75.07;99984.53;10296517;28;96885;-76
2023/03/06 11:49:01;;;;;;;24.23;18.30;;;;;;;14.47;74.02;99979.88;10337572;28;96692;-75
2023/03/06 11:54:06;;;;;;;17.42;13.77;;;;;;;14.07;75.34;99969.91;10337377;28;97915;-76
2023/03/06 11:59:40;;;;;;;17.08;13.80;;;;;;;14.46;74.29;99965.78;10341433;28;96652;-75
2023/03/06 12:05:02;;;;;;;18.15;15.18;;;;;;;15.01;73.95;99962.41;10316239;28;96878;-76
2023/03/06 12:10:18;;;;;;;18.02;12.10;;;;;;;15.23;73.45;99942.41;10303703;28;96771;-76
2023/03/06 12:15:34;;;;;;;16.15;12.32;;;;;;;15.78;71.24;99940.59;10303151;28;96681;-75
2023/03/06 12:20:50;;;;;;;55.83;42.72;;;;;;;16.18;70.54;99935.25;10303505;28;96680;-76
2023/03/06 12:26:03;;;;;;;371.75;322.10;;;;;;;16.22;70.42;99940.25;10301973;28;96816;-76
2023/03/06 12:31:34;;;;;;;458.33;409.55;;;;;;;15.99;70.53;99927.69;10301508;28;96674;-75
2023/03/06 12:36:48;;;;;;;88.93;77.63;;;;;;;15.96;71.36;99925.22;10313311;28;96774;-76
2023/03/06 12:42:05;;;;;;;208.65;183.60;;;;;;;15.55;71.98;99917.34;10342808;28;97439;-76
2023/03/06 12:47:21;;;;;;;755.38;674.13;;;;;;;15.57;72.08;99912.81;10341353;28;96717;-76
2023/03/06 12:52:27;;;;;;;26.23;22.98;;;;;;;15.16;72.94;99911.09;10335165;28;96918;-75
2023/03/06 12:57:34;;;;;;;62.58;47.58;;;;;;;14.90;73.74;99893.31;10301640;28;97269;-75
2023/03/06 13:03:04;;;;;;;433.70;361.45;;;;;;;15.04;73.67;99888.00;10301930;28;97582;-75
2023/03/06 13:08:32;;;;;;;52.60;38.00;;;;;;;14.83;74.03;99875.16;10336266;28;96635;-75
2023/03/06 13:13:44;;;;;;;122.85;87.07;;;;;;;14.74;74.91;99874.91;10299939;28;97012;-75
2023/03/06 13:18:50;;;;;;;43.92;32.80;;;;;;;14.73;75.40;99878.50;10300232;28;96723;-76
2023/03/06 13:24:04;;;;;;;44.95;31.42;;;;;;;14.68;75.96;99870.81;10300865;28;96837;-75
2023/03/06 13:29:41;;;;;;;322.48;274.83;;;;;;;14.55;76.15;99864.59;10301112;28;96971;-75
2023/03/06 13:34:47;;;;;;;68.50;43.63;;;;;;;14.53;76.57;99866.50;10298829;28;97318;-75
2023/03/06 13:40:26;;;;;;;19.90;15.55;;;;;;;14.28;77.53;99857.50;10299944;28;96838;-75
2023/03/06 13:45:34;;;;;;;210.18;115.03;;;;;;;14.46;76.84;99844.00;10323399;28;96721;-75
2023/03/06 13:50:41;;;;;;;31.05;20.58;;;;;;;14.53;77.22;99841.81;10339678;28;96666;-75
2023/03/06 13:55:52;;;;;;;152.48;109.25;;;;;;;14.55;77.29;99824.88;10341290;28;96635;-76
2023/03/06 14:01:07;;;;;;;238.38;168.15;;;;;;;14.52;78.31;99822.41;10338863;28;96563;-75
2023/03/06 14:06:47;;;;;;;32.00;23.30;;;;;;;14.36;78.75;99810.22;10318264;28;96791;-75
2023/03/06 14:11:54;;;;;;;57.42;43.40;;;;;;;14.52;78.71;99816.28;10298477;28;96832;-75
2023/03/06 14:16:58;;;;;;;22.95;16.98;;;;;;;14.40;79.05;99809.09;10299456;28;96668;-75
2023/03/06 14:22:03;;;;;;;24.30;18.63;;;;;;;14.38;78.96;99806.56;10297708;28;96860;-75
2023/03/06 14:27:18;;;;;;;28.17;19.45;;;;;;;14.41;79.34;99795.78;10298921;28;96606;-75
2023/03/06 14:32:22;;;;;;;36.03;22.87;;;;;;;14.72;78.57;99789.38;10298645;28;97018;-75
2023/03/06 14:37:27;;;;;;;54.40;35.83;;;;;;;14.85;78.16;99790.31;10329207;28;96723;-76
2023/03/06 14:42:32;;;;;;;47.33;29.35;;;;;;;14.75;78.64;99771.50;10339150;28;96760;-75
2023/03/06 14:47:37;;;;;;;34.80;23.65;;;;;;;14.62;78.82;99762.66;10340171;28;96500;-75
2023/03/06 14:52:40;;;;;;;27.90;20.13;;;;;;;14.79;78.74;99758.91;10338978;28;96669;-75
2023/03/06 14:57:47;;;;;;;21.60;15.18;;;;;;;14.77;78.98;99743.13;10339063;28;96601;-75
2023/03/06 15:02:52;;;;;;;22.58;14.95;;;;;;;14.81;79.30;99741.13;10338529;28;96650;-75
2023/03/06 15:07:59;;;;;;;22.17;17.15;;;;;;;14.77;79.29;99737.81;10303643;28;96605;-76
2023/03/06 15:13:18;;;;;;;32.80;21.95;;;;;;;14.68;79.89;99738.41;10297164;28;96816;-75
2023/03/06 15:18:34;;;;;;;32.72;22.48;;;;;;;14.59;80.02;99731.06;10296929;28;96609;-75
2023/03/06 15:23:39;;;;;;;53.10;31.27;;;;;;;14.65;80.46;99725.38;10297180;28;96546;-75
2023/03/06 15:28:43;;;;;;;;;;;;;;;14.60;80.46;99713.38;10297931;28;96639;-75
2023/03/06 15:34:15;;;;;;;41.00;24.60;;;;;;;14.60;80.65;99714.22;10297422;28;96674;-76
2023/03/06 15:39:31;;;;;;;33.90;21.20;;;;;;;14.59;80.74;99707.22;10321335;28;96897;-76
2023/03/06 15:44:36;;;;;;;36.35;24.38;;;;;;;14.54;80.55;99708.50;10313126;28;96606;-76
2023/03/06 15:49:40;;;;;;;55.50;34.55;;;;;;;14.60;80.70;99697.50;10336971;28;97464;-75
2023/03/06 15:54:43;;;;;;;35.50;26.35;;;;;;;14.72;80.69;99689.59;10336794;28;96538;-75
2023/03/06 15:59:48;;;;;;;32.22;22.92;;;;;;;14.83;80.60;99686.25;10327570;28;96872;-75
2023/03/06 16:04:52;;;;;;;34.65;26.15;;;;;;;14.77;81.03;99678.69;10296407;28;96801;-75
2023/03/06 16:09:55;;;;;;;51.55;32.33;;;;;;;14.63;80.62;99676.94;10296149;28;96730;-75
2023/03/06 16:15:01;;;;;;;81.03;55.05;;;;;;;14.63;80.50;99669.00;10296371;28;96735;-75
2023/03/06 16:20:06;;;;;;;52.65;32.53;;;;;;;14.68;80.20;99669.56;10331919;28;97151;-75
2023/03/06 16:25:11;;;;;;;39.03;26.02;;;;;;;14.76;80.19;99659.31;10336736;28;97045;-75
2023/03/06 16:30:18;;;;;;;54.13;33.88;;;;;;;14.60;80.45;99652.47;10336960;28;96575;-75
2023/03/06 16:35:21;;;;;;;30.95;24.08;;;;;;;14.52;80.72;99662.72;10335263;28;96700;-75
2023/03/06 16:40:26;;;;;;;27.33;20.92;;;;;;;14.44;80.98;99654.41;10294644;28;96882;-75
2023/03/06 16:45:31;;;;;;;27.40;19.83;;;;;;;14.37;81.23;99643.38;10298298;28;96689;-75
2023/03/06 16:50:38;;;;;;;25.08;18.60;;;;;;;14.30;81.42;99635.91;10309572;28;96658;-75
2023/03/06 16:55:41;;;;;;;25.75;19.70;;;;;;;14.25;81.49;99627.44;10343036;28;96693;-75
2023/03/06 17:00:46;;;;;;;30.52;21.90;;;;;;;14.28;81.51;99622.78;10342312;28;96747;-75
2023/03/06 17:05:49;;;;;;;58.33;37.00;;;;;;;14.34;81.47;99621.56;10342770;28;96628;-75
2023/03/06 17:10:52;;;;;;;42.58;29.10;;;;;;;14.39;81.21;99619.44;10341472;28;96956;-75
2023/03/06 17:15:58;;;;;;;36.08;24.02;;;;;;;14.40;81.39;99615.88;10342131;28;96901;-75
2023/03/06 17:21:01;;;;;;;41.65;27.77;;;;;;;14.39;81.62;99612.38;10342374;28;96812;-75
2023/03/06 17:26:05;;;;;;;27.77;20.15;;;;;;;14.44;81.39;99606.75;10341128;28;96838;-75
2023/03/06 17:31:15;;;;;;;26.25;17.75;;;;;;;14.38;81.51;99612.47;10341928;28;96724;-75
2023/03/06 17:36:19;;;;;;;28.50;20.23;;;;;;;14.44;81.29;99617.34;10332295;28;96581;-75
2023/03/06 17:41:23;;;;;;;33.28;21.88;;;;;;;14.41;81.45;99606.97;10300214;28;96851;-75
2023/03/06 17:46:28;;;;;;;26.77;19.23;;;;;;;14.44;81.23;99620.00;10299992;28;96684;-75
2023/03/06 17:51:31;;;;;;;22.88;17.35;;;;;;;14.38;81.59;99612.47;10300030;28;96691;-75
2023/03/06 17:56:34;;;;;;;23.70;16.35;;;;;;;14.34;81.53;99619.75;10299676;28;96648;-75
2023/03/06 18:01:39;;;;;;;18.95;14.82;;;;;;;14.38;81.05;99613.34;10300080;28;96586;-75
2023/03/06 18:06:42;;;;;;;17.70;13.80;;;;;;;14.42;80.68;99613.97;10299365;28;96698;-75
2023/03/06 18:11:45;;;;;;;21.00;14.70;;;;;;;14.33;81.18;99615.41;10299627;28;96560;-75
2023/03/06 18:16:50;;;;;;;21.35;15.65;;;;;;;14.27;81.04;99614.94;10299764;28;96641;-76
2023/03/06 18:21:53;;;;;;;21.27;14.35;;;;;;;14.30;81.46;99614.75;10298890;28;96687;-75
2023/03/06 18:26:56;;;;;;;20.25;15.15;;;;;;;14.33;81.19;99620.69;10298355;28;96642;-75
2023/03/06 18:32:01;;;;;;;20.85;14.30;;;;;;;14.27;80.96;99620.25;10299224;28;96733;-75
2023/03/06 18:37:04;;;;;;;24.92;19.75;;;;;;;14.23;81.85;99632.00;10298465;28;96688;-76
2023/03/06 18:42:08;;;;;;;25.50;20.02;;;;;;;14.18;82.42;99626.97;10297927;28;97245;-75
2023/03/06 18:47:12;;;;;;;22.27;17.35;;;;;;;14.13;82.78;99638.81;10316224;28;96788;-75
2023/03/06 18:52:16;;;;;;;23.95;16.77;;;;;;;14.11;82.86;99640.69;10309624;28;96934;-75
2023/03/06 18:57:19;;;;;;;18.63;14.55;;;;;;;14.05;83.26;99635.81;10297451;28;96738;-75
2023/03/06 19:02:23;;;;;;;21.50;18.33;;;;;;;13.97;83.73;99644.19;10298264;28;96624;-76
2023/03/06 19:07:27;;;;;;;27.42;19.38;;;;;;;13.98;83.53;99650.34;10297429;28;96702;-76
2023/03/06 19:12:32;;;;;;;26.80;20.65;;;;;;;13.97;83.57;99648.66;10297538;28;96715;-76
2023/03/06 19:17:37;;;;;;;24.75;19.48;;;;;;;14.03;83.54;99649.13;10297089;28;97006;-75
2023/03/06 19:22:40;;;;;;;27.35;20.75;;;;;;;13.94;83.72;99652.31;10297304;28;97368;-76
2023/03/06 19:27:44;;;;;;;185.57;149.88;;;;;;;13.90;84.10;99655.25;10338314;28;97104;-75
2023/03/06 19:32:49;;;;;;;68.37;51.57;;;;;;;13.85;83.95;99660.00;10336614;28;96730;-75
2023/03/06 19:37:53;;;;;;;22.77;16.75;;;;;;;13.83;84.19;99657.41;10328736;28;96898;-75
2023/03/06 19:42:56;;;;;;;25.23;20.50;;;;;;;13.73;84.50;99645.72;10296709;28;96527;-75
2023/03/06 19:48:02;;;;;;;22.63;15.98;;;;;;;13.65;84.47;99643.56;10296716;28;96549;-75
2023/03/06 19:53:06;;;;;;;22.52;15.05;;;;;;;13.54;84.62;99640.72;10296303;28;96647;-75
2023/03/06 19:58:10;;;;;;;21.50;14.93;;;;;;;13.55;84.77;99646.88;10296787;28;96663;-76
2023/03/06 20:03:14;;;;;;;28.70;20.02;;;;;;;13.56;84.45;99645.91;10296236;28;96674;-75
2023/03/06 20:08:17;;;;;;;15.43;9.48;;;;;;;13.53;84.42;99656.69;10295696;28;97367;-76
2023/03/06 20:13:20;;;;;;;15.63;9.88;;;;;;;13.56;83.78;99649.41;10296531;28;96951;-75
2023/03/06 20:18:25;;;;;;;17.10;11.93;;;;;;;13.50;84.13;99649.78;10298253;28;96691;-76
2023/03/06 20:23:28;;;;;;;14.13;10.70;;;;;;;13.52;83.83;99652.31;10303144;28;96517;-75
2023/03/06 20:28:32;;;;;;;43.13;25.38;;;;;;;13.51;83.90;99654.13;10302761;28;96653;-76
2023/03/06 20:33:37;;;;;;;15.13;12.25;;;;;;;13.58;83.84;99657.25;10303107;28;97019;-75
2023/03/06 20:38:40;;;;;;;17.60;12.52;;;;;;;13.61;83.84;99662.34;10317976;28;96683;-75
2023/03/06 20:43:44;;;;;;;16.42;12.18;;;;;;;13.61;83.84;99670.25;10343056;28;96803;-75
2023/03/06 20:48:50;;;;;;;21.60;13.57;;;;;;;13.54;83.96;99651.28;10333471;28;96716;-75
2023/03/06 20:53:53;;;;;;;14.88;11.68;;;;;;;13.52;83.70;99644.38;10302263;28;97046;-75
2023/03/06 20:58:57;;;;;;;14.45;10.80;;;;;;;13.40;84.16;99651.28;10301173;28;96633;-75
2023/03/06 21:04:03;;;;;;;14.10;10.68;;;;;;;13.37;84.05;99651.47;10301774;28;96802;-75
2023/03/06 21:09:06;;;;;;;13.20;10.27;;;;;;;13.39;84.01;99646.94;10301884;28;96676;-75
2023/03/06 21:14:12;;;;;;;13.48;10.05;;;;;;;13.36;84.39;99649.75;10301341;28;96764;-75
2023/03/06 21:19:18;;;;;;;13.57;10.10;;;;;;;13.38;83.90;99649.69;10300874;28;96785;-75
2023/03/06 21:24:21;;;;;;;12.00;9.40;;;;;;;13.44;83.46;99639.59;10301663;28;96891;-75
2023/03/06 21:29:24;;;;;;;12.25;9.38;;;;;;;13.47;83.90;99649.97;10300700;28;96827;-75
2023/03/06 21:34:29;;;;;;;11.93;9.30;;;;;;;13.54;83.78;99663.66;10302115;28;96499;-75
2023/03/06 21:39:32;;;;;;;13.40;9.98;;;;;;;13.59;83.80;99658.94;10307618;28;96797;-75
2023/03/06 21:44:35;;;;;;;15.13;11.70;;;;;;;13.60;83.33;99658.00;10341597;28;96683;-75
2023/03/06 21:49:40;;;;;;;14.50;10.52;;;;;;;13.57;83.66;99672.25;10340331;28;98245;-75
2023/03/06 21:54:43;;;;;;;16.77;10.35;;;;;;;13.60;83.75;99673.88;10341260;28;97204;-75
2023/03/06 21:59:46;;;;;;;13.93;10.05;;;;;;;13.57;83.98;99677.53;10306298;28;97191;-75
2023/03/06 22:04:51;;;;;;;15.95;13.20;;;;;;;13.52;84.03;99681.41;10299409;28;96598;-76
2023/03/06 22:09:55;;;;;;;14.30;11.18;;;;;;;13.48;84.25;99687.84;10299154;28;98568;-76
2023/03/06 22:14:58;;;;;;;16.05;11.63;;;;;;;13.54;84.06;99687.44;10318220;28;96747;-76
2023/03/06 22:20:03;;;;;;;18.75;13.77;;;;;;;13.43;84.90;99698.66;10340222;28;96568;-75
2023/03/06 22:25:07;;;;;;;19.85;14.63;;;;;;;13.35;85.32;99710.63;10340523;28;96628;-76
2023/03/06 22:30:12;;;;;;;19.60;15.35;;;;;;;13.27;85.17;99699.69;10334418;28;96821;-76
2023/03/06 22:35:16;;;;;;;35.03;18.77;;;;;;;13.27;85.31;99713.75;10298654;28;97467;-75
2023/03/06 22:40:20;;;;;;;52.63;28.70;;;;;;;13.25;85.29;99706.84;10303004;28;97028;-76
2023/03/06 22:45:23;;;;;;;34.45;30.98;;;;;;;13.18;86.08;99701.06;10297335;28;96618;-76
2023/03/06 22:50:27;;;;;;;23.65;17.90;;;;;;;13.19;85.82;99700.13;10329351;28;96750;-75
2023/03/06 22:55:31;;;;;;;17.25;12.68;;;;;;;13.13;86.07;99692.56;10339138;28;96562;-75
2023/03/06 23:00:34;;;;;;;23.58;16.35;;;;;;;13.05;86.75;99702.72;10339145;28;96588;-75
2023/03/06 23:05:42;;;;;;;12.27;6.53;;;;;;;13.17;86.75;99703.81;10338093;28;96683;-76
2023/03/06 23:10:45;;;;;;;6.00;3.58;;;;;;;13.22;86.84;99694.69;10339140;28;96711;-76
2023/03/06 23:15:48;;;;;;;8.63;4.72;;;;;;;13.16;86.38;99692.38;10340163;28;96947;-75